sensor_id;sensor_type;location;lat;lon;timestamp;P1;durP1;ratioP1;P2;durP2;ratioP2
46308;SDS011;32037;50.820;6.494;2023-07-13T00:01:13;1.30;;;0.70;;
46308;SDS011;32037;50.820;6.494;2023-07-13T00:03:44;1.27;;;0.83;;
46308;SDS011;32037;50.820;6.494;2023-07-13T00:06:12;1.57;;;1.00;;
46308;SDS011;32037;50.820;6.494;2023-07-13T00:08:41;1.13;;;0.80;;
46308;SDS011;32037;50.820;6.494;2023-07-13T00:11:10;1.20;;;1.10;;
46308;SDS011;32037;50.820;6.494;2023-07-13T00:13:38;1.23;;;1.13;;
46308;SDS011;32037;50.820;6.494;2023-07-13T00:16:07;1.30;;;1.10;;
46308;SDS011;32037;50.820;6.494;2023-07-13T00:18:37;1.17;;;0.90;;
46308;SDS011;32037;50.820;6.494;2023-07-13T00:21:07;0.80;;;0.80;;
46308;SDS011;32037;50.820;6.494;2023-07-13T00:23:36;1.50;;;1.07;;
46308;SDS011;32037;50.820;6.494;2023-07-13T00:26:06;1.50;;;0.80;;
46308;SDS011;32037;50.820;6.494;2023-07-13T00:28:37;1.43;;;0.83;;
46308;SDS011;32037;50.820;6.494;2023-07-13T00:31:08;1.70;;;0.93;;
46308;SDS011;32037;50.820;6.494;2023-07-13T00:33:37;1.50;;;1.10;;
46308;SDS011;32037;50.820;6.494;2023-07-13T00:36:08;1.97;;;0.80;;
46308;SDS011;32037;50.820;6.494;2023-07-13T00:38:37;1.40;;;1.20;;
46308;SDS011;32037;50.820;6.494;2023-07-13T00:41:07;1.73;;;1.00;;
46308;SDS011;32037;50.820;6.494;2023-07-13T00:43:35;1.00;;;0.83;;
46308;SDS011;32037;50.820;6.494;2023-07-13T00:46:15;1.33;;;1.00;;
46308;SDS011;32037;50.820;6.494;2023-07-13T00:48:48;0.90;;;0.80;;
46308;SDS011;32037;50.820;6.494;2023-07-13T00:51:20;1.93;;;1.40;;
46308;SDS011;32037;50.820;6.494;2023-07-13T00:53:52;1.27;;;1.17;;
46308;SDS011;32037;50.820;6.494;2023-07-13T00:56:23;0.87;;;0.60;;
46308;SDS011;32037;50.820;6.494;2023-07-13T00:58:52;1.27;;;0.90;;
46308;SDS011;32037;50.820;6.494;2023-07-13T01:01:21;1.63;;;0.93;;
46308;SDS011;32037;50.820;6.494;2023-07-13T01:03:50;0.90;;;0.70;;
46308;SDS011;32037;50.820;6.494;2023-07-13T01:06:20;2.70;;;1.00;;
46308;SDS011;32037;50.820;6.494;2023-07-13T01:08:48;1.10;;;1.00;;
46308;SDS011;32037;50.820;6.494;2023-07-13T01:11:19;1.00;;;0.80;;
46308;SDS011;32037;50.820;6.494;2023-07-13T01:13:49;1.80;;;0.97;;
46308;SDS011;32037;50.820;6.494;2023-07-13T01:16:19;1.20;;;1.10;;
46308;SDS011;32037;50.820;6.494;2023-07-13T01:18:52;0.93;;;0.73;;
46308;SDS011;32037;50.820;6.494;2023-07-13T01:21:24;1.13;;;0.87;;
46308;SDS011;32037;50.820;6.494;2023-07-13T01:23:53;1.20;;;0.80;;
46308;SDS011;32037;50.820;6.494;2023-07-13T01:26:22;1.00;;;0.93;;
46308;SDS011;32037;50.820;6.494;2023-07-13T01:28:50;1.33;;;0.97;;
46308;SDS011;32037;50.820;6.494;2023-07-13T01:31:18;1.10;;;0.80;;
46308;SDS011;32037;50.820;6.494;2023-07-13T01:33:47;1.10;;;0.80;;
46308;SDS011;32037;50.820;6.494;2023-07-13T01:36:15;1.10;;;0.87;;
46308;SDS011;32037;50.820;6.494;2023-07-13T01:38:45;1.10;;;0.80;;
46308;SDS011;32037;50.820;6.494;2023-07-13T01:41:13;2.00;;;0.93;;
46308;SDS011;32037;50.820;6.494;2023-07-13T01:43:42;1.50;;;1.07;;
46308;SDS011;32037;50.820;6.494;2023-07-13T01:46:10;1.27;;;0.90;;
46308;SDS011;32037;50.820;6.494;2023-07-13T01:48:49;1.53;;;1.13;;
46308;SDS011;32037;50.820;6.494;2023-07-13T01:51:18;1.37;;;0.90;;
46308;SDS011;32037;50.820;6.494;2023-07-13T01:53:49;1.80;;;0.90;;
46308;SDS011;32037;50.820;6.494;2023-07-13T01:56:17;1.67;;;0.90;;
46308;SDS011;32037;50.820;6.494;2023-07-13T01:58:46;1.50;;;0.90;;
46308;SDS011;32037;50.820;6.494;2023-07-13T02:01:15;1.60;;;0.97;;
46308;SDS011;32037;50.820;6.494;2023-07-13T02:03:44;1.70;;;0.83;;
46308;SDS011;32037;50.820;6.494;2023-07-13T02:06:13;2.00;;;0.60;;
46308;SDS011;32037;50.820;6.494;2023-07-13T02:08:41;3.37;;;0.90;;
46308;SDS011;32037;50.820;6.494;2023-07-13T02:11:11;1.33;;;1.20;;
46308;SDS011;32037;50.820;6.494;2023-07-13T02:13:40;1.20;;;0.90;;
46308;SDS011;32037;50.820;6.494;2023-07-13T02:16:08;0.93;;;0.90;;
46308;SDS011;32037;50.820;6.494;2023-07-13T02:18:38;1.53;;;1.00;;
46308;SDS011;32037;50.820;6.494;2023-07-13T02:21:06;1.13;;;1.03;;
46308;SDS011;32037;50.820;6.494;2023-07-13T02:23:35;2.77;;;1.00;;
46308;SDS011;32037;50.820;6.494;2023-07-13T02:26:03;0.80;;;0.70;;
46308;SDS011;32037;50.820;6.494;2023-07-13T02:28:33;1.00;;;0.77;;
46308;SDS011;32037;50.820;6.494;2023-07-13T02:31:05;1.37;;;0.93;;
46308;SDS011;32037;50.820;6.494;2023-07-13T02:33:35;1.10;;;0.90;;
46308;SDS011;32037;50.820;6.494;2023-07-13T02:36:04;1.93;;;1.17;;
46308;SDS011;32037;50.820;6.494;2023-07-13T02:38:33;1.53;;;1.00;;
46308;SDS011;32037;50.820;6.494;2023-07-13T02:41:02;1.30;;;0.90;;
46308;SDS011;32037;50.820;6.494;2023-07-13T02:43:31;0.80;;;0.70;;
46308;SDS011;32037;50.820;6.494;2023-07-13T02:46:01;1.00;;;0.90;;
46308;SDS011;32037;50.820;6.494;2023-07-13T02:48:35;1.30;;;1.00;;
46308;SDS011;32037;50.820;6.494;2023-07-13T02:51:04;1.27;;;0.97;;
46308;SDS011;32037;50.820;6.494;2023-07-13T02:53:34;1.10;;;0.80;;
46308;SDS011;32037;50.820;6.494;2023-07-13T02:56:03;2.10;;;0.90;;
46308;SDS011;32037;50.820;6.494;2023-07-13T02:58:32;1.53;;;1.10;;
46308;SDS011;32037;50.820;6.494;2023-07-13T03:01:07;1.07;;;0.90;;
46308;SDS011;32037;50.820;6.494;2023-07-13T03:03:37;1.33;;;0.80;;
46308;SDS011;32037;50.820;6.494;2023-07-13T03:06:06;1.10;;;1.00;;
46308;SDS011;32037;50.820;6.494;2023-07-13T03:08:44;0.83;;;0.77;;
46308;SDS011;32037;50.820;6.494;2023-07-13T03:11:15;1.37;;;1.00;;
46308;SDS011;32037;50.820;6.494;2023-07-13T03:13:49;1.10;;;0.90;;
46308;SDS011;32037;50.820;6.494;2023-07-13T03:16:20;1.10;;;0.70;;
46308;SDS011;32037;50.820;6.494;2023-07-13T03:18:51;0.80;;;0.70;;
46308;SDS011;32037;50.820;6.494;2023-07-13T03:21:19;1.60;;;1.10;;
46308;SDS011;32037;50.820;6.494;2023-07-13T03:23:48;1.07;;;0.97;;
46308;SDS011;32037;50.820;6.494;2023-07-13T03:26:18;1.70;;;1.10;;
46308;SDS011;32037;50.820;6.494;2023-07-13T03:28:48;1.53;;;0.90;;
46308;SDS011;32037;50.820;6.494;2023-07-13T03:31:22;1.53;;;1.10;;
46308;SDS011;32037;50.820;6.494;2023-07-13T03:33:53;1.40;;;0.80;;
46308;SDS011;32037;50.820;6.494;2023-07-13T03:36:22;1.23;;;0.97;;
46308;SDS011;32037;50.820;6.494;2023-07-13T03:38:57;1.40;;;0.93;;
46308;SDS011;32037;50.820;6.494;2023-07-13T03:41:34;1.10;;;0.80;;
46308;SDS011;32037;50.820;6.494;2023-07-13T03:44:03;1.63;;;1.00;;
46308;SDS011;32037;50.820;6.494;2023-07-13T03:46:33;0.80;;;0.80;;
46308;SDS011;32037;50.820;6.494;2023-07-13T03:49:03;0.80;;;0.73;;
46308;SDS011;32037;50.820;6.494;2023-07-13T03:51:32;1.70;;;0.90;;
46308;SDS011;32037;50.820;6.494;2023-07-13T03:54:01;1.07;;;0.87;;
46308;SDS011;32037;50.820;6.494;2023-07-13T03:56:30;1.50;;;1.03;;
46308;SDS011;32037;50.820;6.494;2023-07-13T03:59:01;0.93;;;0.73;;
46308;SDS011;32037;50.820;6.494;2023-07-13T04:01:30;1.10;;;0.80;;
46308;SDS011;32037;50.820;6.494;2023-07-13T04:04:00;1.50;;;1.00;;
46308;SDS011;32037;50.820;6.494;2023-07-13T04:06:30;0.93;;;0.80;;
46308;SDS011;32037;50.820;6.494;2023-07-13T04:09:00;1.10;;;0.90;;
46308;SDS011;32037;50.820;6.494;2023-07-13T04:11:32;1.20;;;1.00;;
46308;SDS011;32037;50.820;6.494;2023-07-13T04:14:03;1.30;;;0.80;;
46308;SDS011;32037;50.820;6.494;2023-07-13T04:16:34;1.67;;;0.93;;
46308;SDS011;32037;50.820;6.494;2023-07-13T04:19:03;1.50;;;1.03;;
46308;SDS011;32037;50.820;6.494;2023-07-13T04:21:31;0.93;;;0.83;;
46308;SDS011;32037;50.820;6.494;2023-07-13T04:24:00;3.50;;;1.10;;
46308;SDS011;32037;50.820;6.494;2023-07-13T04:26:29;1.10;;;0.80;;
46308;SDS011;32037;50.820;6.494;2023-07-13T04:28:58;1.53;;;0.70;;
46308;SDS011;32037;50.820;6.494;2023-07-13T04:31:26;1.63;;;1.00;;
46308;SDS011;32037;50.820;6.494;2023-07-13T04:33:56;1.30;;;0.90;;
46308;SDS011;32037;50.820;6.494;2023-07-13T04:36:25;1.83;;;1.00;;
46308;SDS011;32037;50.820;6.494;2023-07-13T04:38:54;1.80;;;0.90;;
46308;SDS011;32037;50.820;6.494;2023-07-13T04:41:22;1.70;;;0.90;;
46308;SDS011;32037;50.820;6.494;2023-07-13T04:43:51;1.87;;;0.80;;
46308;SDS011;32037;50.820;6.494;2023-07-13T04:46:22;1.83;;;0.93;;
46308;SDS011;32037;50.820;6.494;2023-07-13T04:48:51;1.73;;;0.87;;
46308;SDS011;32037;50.820;6.494;2023-07-13T04:51:21;2.33;;;1.03;;
46308;SDS011;32037;50.820;6.494;2023-07-13T04:53:50;1.43;;;1.10;;
46308;SDS011;32037;50.820;6.494;2023-07-13T04:56:24;1.10;;;1.00;;
46308;SDS011;32037;50.820;6.494;2023-07-13T04:58:52;1.03;;;0.90;;
46308;SDS011;32037;50.820;6.494;2023-07-13T05:01:21;1.43;;;0.87;;
46308;SDS011;32037;50.820;6.494;2023-07-13T05:03:49;1.23;;;0.90;;
46308;SDS011;32037;50.820;6.494;2023-07-13T05:06:18;2.10;;;0.90;;
46308;SDS011;32037;50.820;6.494;2023-07-13T05:08:47;1.63;;;1.20;;
46308;SDS011;32037;50.820;6.494;2023-07-13T05:11:18;1.27;;;1.17;;
46308;SDS011;32037;50.820;6.494;2023-07-13T05:13:46;2.13;;;1.00;;
46308;SDS011;32037;50.820;6.494;2023-07-13T05:16:14;1.47;;;1.10;;
46308;SDS011;32037;50.820;6.494;2023-07-13T05:18:43;3.00;;;0.97;;
46308;SDS011;32037;50.820;6.494;2023-07-13T05:21:11;1.10;;;1.00;;
46308;SDS011;32037;50.820;6.494;2023-07-13T05:23:40;1.20;;;0.93;;
46308;SDS011;32037;50.820;6.494;2023-07-13T05:26:10;1.67;;;1.20;;
46308;SDS011;32037;50.820;6.494;2023-07-13T05:28:39;1.17;;;0.90;;
46308;SDS011;32037;50.820;6.494;2023-07-13T05:31:09;1.60;;;0.90;;
46308;SDS011;32037;50.820;6.494;2023-07-13T05:33:38;1.03;;;0.83;;
46308;SDS011;32037;50.820;6.494;2023-07-13T05:36:07;3.20;;;1.40;;
46308;SDS011;32037;50.820;6.494;2023-07-13T05:38:36;1.97;;;1.13;;
46308;SDS011;32037;50.820;6.494;2023-07-13T05:41:04;2.27;;;1.03;;
46308;SDS011;32037;50.820;6.494;2023-07-13T05:43:34;1.57;;;1.00;;
46308;SDS011;32037;50.820;6.494;2023-07-13T05:46:02;1.73;;;1.07;;
46308;SDS011;32037;50.820;6.494;2023-07-13T05:48:31;3.40;;;1.07;;
46308;SDS011;32037;50.820;6.494;2023-07-13T05:51:00;1.00;;;0.73;;
46308;SDS011;32037;50.820;6.494;2023-07-13T05:53:29;1.10;;;0.87;;
46308;SDS011;32037;50.820;6.494;2023-07-13T05:55:57;1.77;;;1.13;;
46308;SDS011;32037;50.820;6.494;2023-07-13T05:58:28;1.70;;;1.10;;
46308;SDS011;32037;50.820;6.494;2023-07-13T06:01:03;1.80;;;0.90;;
46308;SDS011;32037;50.820;6.494;2023-07-13T06:03:33;2.93;;;1.30;;
46308;SDS011;32037;50.820;6.494;2023-07-13T06:06:01;2.20;;;1.10;;
46308;SDS011;32037;50.820;6.494;2023-07-13T06:08:30;2.10;;;1.07;;
46308;SDS011;32037;50.820;6.494;2023-07-13T06:11:03;1.57;;;1.13;;
46308;SDS011;32037;50.820;6.494;2023-07-13T06:13:32;2.73;;;1.13;;
46308;SDS011;32037;50.820;6.494;2023-07-13T06:16:02;1.73;;;1.00;;
46308;SDS011;32037;50.820;6.494;2023-07-13T06:18:31;2.10;;;1.00;;
46308;SDS011;32037;50.820;6.494;2023-07-13T06:21:00;1.77;;;1.17;;
46308;SDS011;32037;50.820;6.494;2023-07-13T06:23:32;2.00;;;1.17;;
46308;SDS011;32037;50.820;6.494;2023-07-13T06:26:01;1.87;;;1.10;;
46308;SDS011;32037;50.820;6.494;2023-07-13T06:28:30;2.50;;;0.83;;
46308;SDS011;32037;50.820;6.494;2023-07-13T06:31:06;1.40;;;1.10;;
46308;SDS011;32037;50.820;6.494;2023-07-13T06:33:36;2.70;;;1.10;;
46308;SDS011;32037;50.820;6.494;2023-07-13T06:36:05;1.67;;;1.20;;
46308;SDS011;32037;50.820;6.494;2023-07-13T06:38:35;2.10;;;1.37;;
46308;SDS011;32037;50.820;6.494;2023-07-13T06:41:04;1.23;;;1.10;;
46308;SDS011;32037;50.820;6.494;2023-07-13T06:43:33;2.00;;;0.90;;
46308;SDS011;32037;50.820;6.494;2023-07-13T06:46:02;1.63;;;1.30;;
46308;SDS011;32037;50.820;6.494;2023-07-13T06:48:32;1.27;;;0.90;;
46308;SDS011;32037;50.820;6.494;2023-07-13T06:51:01;2.17;;;1.30;;
46308;SDS011;32037;50.820;6.494;2023-07-13T06:53:30;2.90;;;1.20;;
46308;SDS011;32037;50.820;6.494;2023-07-13T06:55:58;1.43;;;1.20;;
46308;SDS011;32037;50.820;6.494;2023-07-13T06:58:27;3.20;;;1.50;;
46308;SDS011;32037;50.820;6.494;2023-07-13T07:00:55;1.83;;;1.27;;
46308;SDS011;32037;50.820;6.494;2023-07-13T07:03:23;2.77;;;1.47;;
46308;SDS011;32037;50.820;6.494;2023-07-13T07:05:54;1.70;;;1.03;;
46308;SDS011;32037;50.820;6.494;2023-07-13T07:08:27;3.10;;;1.50;;
46308;SDS011;32037;50.820;6.494;2023-07-13T07:10:55;1.83;;;1.10;;
46308;SDS011;32037;50.820;6.494;2023-07-13T07:13:23;1.43;;;0.97;;
46308;SDS011;32037;50.820;6.494;2023-07-13T07:15:52;2.47;;;1.40;;
46308;SDS011;32037;50.820;6.494;2023-07-13T07:18:20;3.50;;;1.73;;
46308;SDS011;32037;50.820;6.494;2023-07-13T07:20:48;2.10;;;1.00;;
46308;SDS011;32037;50.820;6.494;2023-07-13T07:23:18;1.70;;;1.37;;
46308;SDS011;32037;50.820;6.494;2023-07-13T07:25:47;1.43;;;1.33;;
46308;SDS011;32037;50.820;6.494;2023-07-13T07:28:16;1.60;;;1.37;;
46308;SDS011;32037;50.820;6.494;2023-07-13T07:30:49;1.73;;;1.03;;
46308;SDS011;32037;50.820;6.494;2023-07-13T07:33:25;4.27;;;2.10;;
46308;SDS011;32037;50.820;6.494;2023-07-13T07:35:53;2.60;;;2.07;;
46308;SDS011;32037;50.820;6.494;2023-07-13T07:38:26;3.58;;;1.90;;
46308;SDS011;32037;50.820;6.494;2023-07-13T07:40:54;4.03;;;2.47;;
46308;SDS011;32037;50.820;6.494;2023-07-13T07:43:25;4.57;;;2.60;;
46308;SDS011;32037;50.820;6.494;2023-07-13T07:45:54;4.93;;;1.97;;
46308;SDS011;32037;50.820;6.494;2023-07-13T07:48:22;4.10;;;2.30;;
46308;SDS011;32037;50.820;6.494;2023-07-13T07:50:51;4.87;;;2.03;;
46308;SDS011;32037;50.820;6.494;2023-07-13T07:53:19;4.40;;;2.00;;
46308;SDS011;32037;50.820;6.494;2023-07-13T07:55:49;3.10;;;2.13;;
46308;SDS011;32037;50.820;6.494;2023-07-13T07:58:21;2.00;;;1.60;;
46308;SDS011;32037;50.820;6.494;2023-07-13T08:00:52;2.87;;;1.90;;
46308;SDS011;32037;50.820;6.494;2023-07-13T08:03:24;5.03;;;1.93;;
46308;SDS011;32037;50.820;6.494;2023-07-13T08:05:55;4.27;;;2.00;;
46308;SDS011;32037;50.820;6.494;2023-07-13T08:08:43;2.30;;;1.70;;
46308;SDS011;32037;50.820;6.494;2023-07-13T08:11:13;2.40;;;2.00;;
46308;SDS011;32037;50.820;6.494;2023-07-13T08:13:44;2.70;;;1.67;;
46308;SDS011;32037;50.820;6.494;2023-07-13T08:16:13;1.70;;;1.60;;
46308;SDS011;32037;50.820;6.494;2023-07-13T08:18:43;3.63;;;1.60;;
46308;SDS011;32037;50.820;6.494;2023-07-13T08:21:11;2.47;;;1.50;;
46308;SDS011;32037;50.820;6.494;2023-07-13T08:23:42;3.47;;;1.73;;
46308;SDS011;32037;50.820;6.494;2023-07-13T08:26:11;2.17;;;1.40;;
46308;SDS011;32037;50.820;6.494;2023-07-13T08:28:41;6.40;;;2.07;;
46308;SDS011;32037;50.820;6.494;2023-07-13T08:31:09;2.53;;;1.70;;
46308;SDS011;32037;50.820;6.494;2023-07-13T08:33:38;3.23;;;1.67;;
46308;SDS011;32037;50.820;6.494;2023-07-13T08:36:07;1.70;;;1.30;;
46308;SDS011;32037;50.820;6.494;2023-07-13T08:38:35;2.23;;;1.60;;
46308;SDS011;32037;50.820;6.494;2023-07-13T08:41:09;2.67;;;1.57;;
46308;SDS011;32037;50.820;6.494;2023-07-13T08:43:42;4.70;;;2.20;;
46308;SDS011;32037;50.820;6.494;2023-07-13T08:46:16;5.63;;;2.03;;
46308;SDS011;32037;50.820;6.494;2023-07-13T08:48:48;3.93;;;2.37;;
46308;SDS011;32037;50.820;6.494;2023-07-13T08:51:24;5.03;;;1.60;;
46308;SDS011;32037;50.820;6.494;2023-07-13T08:53:59;2.43;;;1.80;;
46308;SDS011;32037;50.820;6.494;2023-07-13T08:56:30;2.77;;;1.60;;
46308;SDS011;32037;50.820;6.494;2023-07-13T08:59:03;4.57;;;1.77;;
46308;SDS011;32037;50.820;6.494;2023-07-13T09:01:43;3.57;;;1.50;;
46308;SDS011;32037;50.820;6.494;2023-07-13T09:04:22;3.40;;;1.47;;
46308;SDS011;32037;50.820;6.494;2023-07-13T09:07:01;2.33;;;1.53;;
46308;SDS011;32037;50.820;6.494;2023-07-13T09:09:37;2.40;;;1.83;;
46308;SDS011;32037;50.820;6.494;2023-07-13T09:12:17;1.87;;;1.17;;
46308;SDS011;32037;50.820;6.494;2023-07-13T09:14:51;4.53;;;2.20;;
46308;SDS011;32037;50.820;6.494;2023-07-13T09:17:23;4.00;;;2.03;;
46308;SDS011;32037;50.820;6.494;2023-07-13T09:19:57;3.53;;;1.77;;
46308;SDS011;32037;50.820;6.494;2023-07-13T09:22:31;3.23;;;1.83;;
46308;SDS011;32037;50.820;6.494;2023-07-13T09:25:04;2.70;;;1.50;;
46308;SDS011;32037;50.820;6.494;2023-07-13T09:27:41;3.30;;;1.80;;
46308;SDS011;32037;50.820;6.494;2023-07-13T09:30:23;3.13;;;1.80;;
46308;SDS011;32037;50.820;6.494;2023-07-13T09:32:55;2.30;;;1.47;;
46308;SDS011;32037;50.820;6.494;2023-07-13T09:35:25;4.23;;;1.70;;
46308;SDS011;32037;50.820;6.494;2023-07-13T09:38:01;3.00;;;1.77;;
46308;SDS011;32037;50.820;6.494;2023-07-13T09:40:48;2.60;;;1.47;;
46308;SDS011;32037;50.820;6.494;2023-07-13T09:43:25;2.73;;;1.60;;
46308;SDS011;32037;50.820;6.494;2023-07-13T09:45:56;3.70;;;2.13;;
46308;SDS011;32037;50.820;6.494;2023-07-13T09:48:26;2.83;;;1.70;;
46308;SDS011;32037;50.820;6.494;2023-07-13T09:51:06;3.60;;;1.80;;
46308;SDS011;32037;50.820;6.494;2023-07-13T09:53:40;2.03;;;1.37;;
46308;SDS011;32037;50.820;6.494;2023-07-13T09:56:19;2.67;;;1.50;;
46308;SDS011;32037;50.820;6.494;2023-07-13T09:58:48;2.07;;;1.00;;
46308;SDS011;32037;50.820;6.494;2023-07-13T10:01:18;2.47;;;1.40;;
46308;SDS011;32037;50.820;6.494;2023-07-13T10:04:00;3.43;;;1.57;;
46308;SDS011;32037;50.820;6.494;2023-07-13T10:06:29;1.93;;;1.60;;
46308;SDS011;32037;50.820;6.494;2023-07-13T10:08:58;3.50;;;1.70;;
46308;SDS011;32037;50.820;6.494;2023-07-13T10:11:27;2.30;;;1.37;;
46308;SDS011;32037;50.820;6.494;2023-07-13T10:13:57;3.70;;;1.30;;
46308;SDS011;32037;50.820;6.494;2023-07-13T10:16:29;2.20;;;1.37;;
46308;SDS011;32037;50.820;6.494;2023-07-13T10:19:02;2.20;;;1.43;;
46308;SDS011;32037;50.820;6.494;2023-07-13T10:21:38;1.60;;;1.30;;
46308;SDS011;32037;50.820;6.494;2023-07-13T10:24:15;2.50;;;1.23;;
46308;SDS011;32037;50.820;6.494;2023-07-13T10:26:48;2.17;;;1.50;;
46308;SDS011;32037;50.820;6.494;2023-07-13T10:29:22;1.87;;;1.63;;
46308;SDS011;32037;50.820;6.494;2023-07-13T10:31:54;3.80;;;1.67;;
46308;SDS011;32037;50.820;6.494;2023-07-13T10:34:24;2.40;;;2.00;;
46308;SDS011;32037;50.820;6.494;2023-07-13T10:36:53;2.20;;;1.27;;
46308;SDS011;32037;50.820;6.494;2023-07-13T10:39:23;2.73;;;1.30;;
46308;SDS011;32037;50.820;6.494;2023-07-13T10:41:55;2.17;;;1.47;;
46308;SDS011;32037;50.820;6.494;2023-07-13T10:44:28;2.90;;;1.40;;
46308;SDS011;32037;50.820;6.494;2023-07-13T10:47:00;2.03;;;1.57;;
46308;SDS011;32037;50.820;6.494;2023-07-13T10:49:31;1.50;;;1.20;;
46308;SDS011;32037;50.820;6.494;2023-07-13T10:52:01;2.60;;;1.43;;
46308;SDS011;32037;50.820;6.494;2023-07-13T10:54:31;2.80;;;1.50;;
46308;SDS011;32037;50.820;6.494;2023-07-13T10:57:08;1.93;;;1.20;;
46308;SDS011;32037;50.820;6.494;2023-07-13T10:59:47;1.30;;;1.20;;
46308;SDS011;32037;50.820;6.494;2023-07-13T11:02:40;1.83;;;1.17;;
46308;SDS011;32037;50.820;6.494;2023-07-13T11:05:14;2.53;;;1.50;;
46308;SDS011;32037;50.820;6.494;2023-07-13T11:07:55;1.80;;;1.40;;
46308;SDS011;32037;50.820;6.494;2023-07-13T11:10:46;2.73;;;1.50;;
46308;SDS011;32037;50.820;6.494;2023-07-13T11:16:12;2.00;;;1.40;;
46308;SDS011;32037;50.820;6.494;2023-07-13T11:18:44;2.93;;;1.23;;
46308;SDS011;32037;50.820;6.494;2023-07-13T11:21:14;2.53;;;1.10;;
46308;SDS011;32037;50.820;6.494;2023-07-13T11:24:01;1.53;;;1.10;;
46308;SDS011;32037;50.820;6.494;2023-07-13T11:26:38;2.00;;;1.20;;
46308;SDS011;32037;50.820;6.494;2023-07-13T11:29:08;1.83;;;1.40;;
46308;SDS011;32037;50.820;6.494;2023-07-13T11:31:52;1.27;;;1.17;;
46308;SDS011;32037;50.820;6.494;2023-07-13T11:34:25;2.23;;;1.30;;
46308;SDS011;32037;50.820;6.494;2023-07-13T11:36:58;3.30;;;1.37;;
46308;SDS011;32037;50.820;6.494;2023-07-13T11:39:31;2.87;;;1.60;;
46308;SDS011;32037;50.820;6.494;2023-07-13T11:42:12;3.60;;;1.63;;
46308;SDS011;32037;50.820;6.494;2023-07-13T11:44:45;2.63;;;1.20;;
46308;SDS011;32037;50.820;6.494;2023-07-13T11:47:33;2.40;;;1.60;;
46308;SDS011;32037;50.820;6.494;2023-07-13T11:50:04;2.60;;;1.53;;
46308;SDS011;32037;50.820;6.494;2023-07-13T11:52:34;3.20;;;1.73;;
46308;SDS011;32037;50.820;6.494;2023-07-13T11:55:05;1.70;;;1.10;;
46308;SDS011;32037;50.820;6.494;2023-07-13T11:57:43;2.20;;;1.20;;
46308;SDS011;32037;50.820;6.494;2023-07-13T12:00:18;1.93;;;1.33;;
46308;SDS011;32037;50.820;6.494;2023-07-13T12:02:52;2.53;;;1.10;;
46308;SDS011;32037;50.820;6.494;2023-07-13T12:05:24;1.40;;;1.20;;
46308;SDS011;32037;50.820;6.494;2023-07-13T12:07:53;2.30;;;1.50;;
46308;SDS011;32037;50.820;6.494;2023-07-13T12:10:22;1.50;;;1.40;;
46308;SDS011;32037;50.820;6.494;2023-07-13T12:12:53;2.60;;;1.30;;
46308;SDS011;32037;50.820;6.494;2023-07-13T12:15:23;2.40;;;1.50;;
46308;SDS011;32037;50.820;6.494;2023-07-13T12:17:58;3.43;;;1.43;;
46308;SDS011;32037;50.820;6.494;2023-07-13T12:20:30;1.53;;;1.30;;
46308;SDS011;32037;50.820;6.494;2023-07-13T12:23:05;1.40;;;0.90;;
46308;SDS011;32037;50.820;6.494;2023-07-13T12:25:38;1.53;;;1.43;;
46308;SDS011;32037;50.820;6.494;2023-07-13T12:28:19;1.70;;;1.27;;
46308;SDS011;32037;50.820;6.494;2023-07-13T12:30:49;1.90;;;1.57;;
46308;SDS011;32037;50.820;6.494;2023-07-13T12:33:26;2.53;;;1.13;;
46308;SDS011;32037;50.820;6.494;2023-07-13T12:35:58;2.47;;;1.43;;
46308;SDS011;32037;50.820;6.494;2023-07-13T12:38:30;3.53;;;1.27;;
46308;SDS011;32037;50.820;6.494;2023-07-13T12:41:00;1.50;;;1.40;;
46308;SDS011;32037;50.820;6.494;2023-07-13T12:43:30;3.53;;;1.20;;
46308;SDS011;32037;50.820;6.494;2023-07-13T12:46:16;2.87;;;1.50;;
46308;SDS011;32037;50.820;6.494;2023-07-13T12:48:48;1.43;;;1.17;;
46308;SDS011;32037;50.820;6.494;2023-07-13T12:51:31;1.70;;;1.37;;
46308;SDS011;32037;50.820;6.494;2023-07-13T12:54:05;1.60;;;1.00;;
46308;SDS011;32037;50.820;6.494;2023-07-13T12:56:41;1.40;;;1.30;;
46308;SDS011;32037;50.820;6.494;2023-07-13T12:59:13;1.43;;;1.33;;
46308;SDS011;32037;50.820;6.494;2023-07-13T13:01:45;2.33;;;1.63;;
46308;SDS011;32037;50.820;6.494;2023-07-13T13:04:16;2.17;;;1.27;;
46308;SDS011;32037;50.820;6.494;2023-07-13T13:06:58;3.70;;;1.13;;
46308;SDS011;32037;50.820;6.494;2023-07-13T13:09:29;1.63;;;1.00;;
46308;SDS011;32037;50.820;6.494;2023-07-13T13:11:57;2.37;;;1.33;;
46308;SDS011;32037;50.820;6.494;2023-07-13T13:14:27;1.03;;;0.93;;
46308;SDS011;32037;50.820;6.494;2023-07-13T13:16:56;1.20;;;1.10;;
46308;SDS011;32037;50.820;6.494;2023-07-13T13:19:28;1.50;;;1.30;;
46308;SDS011;32037;50.820;6.494;2023-07-13T13:21:59;3.43;;;1.40;;
46308;SDS011;32037;50.820;6.494;2023-07-13T13:24:31;1.63;;;1.00;;
46308;SDS011;32037;50.820;6.494;2023-07-13T13:26:59;1.30;;;1.10;;
46308;SDS011;32037;50.820;6.494;2023-07-13T13:29:31;1.30;;;1.10;;
46308;SDS011;32037;50.820;6.494;2023-07-13T13:32:00;2.00;;;1.50;;
46308;SDS011;32037;50.820;6.494;2023-07-13T13:34:33;3.40;;;1.20;;
46308;SDS011;32037;50.820;6.494;2023-07-13T13:37:04;1.97;;;1.40;;
46308;SDS011;32037;50.820;6.494;2023-07-13T13:39:47;4.10;;;1.23;;
46308;SDS011;32037;50.820;6.494;2023-07-13T13:42:33;2.77;;;1.60;;
46308;SDS011;32037;50.820;6.494;2023-07-13T13:45:03;1.50;;;1.00;;
46308;SDS011;32037;50.820;6.494;2023-07-13T13:47:32;1.50;;;0.90;;
46308;SDS011;32037;50.820;6.494;2023-07-13T13:50:10;1.20;;;0.90;;
46308;SDS011;32037;50.820;6.494;2023-07-13T13:52:43;1.57;;;1.10;;
46308;SDS011;32037;50.820;6.494;2023-07-13T13:55:13;2.20;;;1.20;;
46308;SDS011;32037;50.820;6.494;2023-07-13T13:57:42;1.87;;;1.20;;
46308;SDS011;32037;50.820;6.494;2023-07-13T14:00:11;1.20;;;1.10;;
46308;SDS011;32037;50.820;6.494;2023-07-13T14:02:44;2.10;;;1.10;;
46308;SDS011;32037;50.820;6.494;2023-07-13T14:05:17;1.43;;;1.10;;
46308;SDS011;32037;50.820;6.494;2023-07-13T14:07:51;3.07;;;0.97;;
46308;SDS011;32037;50.820;6.494;2023-07-13T14:10:19;2.37;;;1.23;;
46308;SDS011;32037;50.820;6.494;2023-07-13T14:12:50;1.53;;;1.13;;
46308;SDS011;32037;50.820;6.494;2023-07-13T14:15:20;1.90;;;1.13;;
46308;SDS011;32037;50.820;6.494;2023-07-13T14:17:50;2.70;;;1.47;;
46308;SDS011;32037;50.820;6.494;2023-07-13T14:20:19;1.60;;;1.40;;
46308;SDS011;32037;50.820;6.494;2023-07-13T14:22:52;1.20;;;1.00;;
46308;SDS011;32037;50.820;6.494;2023-07-13T14:25:21;1.57;;;1.47;;
46308;SDS011;32037;50.820;6.494;2023-07-13T14:27:51;2.13;;;1.27;;
46308;SDS011;32037;50.820;6.494;2023-07-13T14:30:25;1.50;;;1.10;;
46308;SDS011;32037;50.820;6.494;2023-07-13T14:32:57;1.70;;;1.10;;
46308;SDS011;32037;50.820;6.494;2023-07-13T14:35:26;1.40;;;1.17;;
46308;SDS011;32037;50.820;6.494;2023-07-13T14:37:57;2.27;;;1.30;;
46308;SDS011;32037;50.820;6.494;2023-07-13T14:40:28;1.50;;;1.03;;
46308;SDS011;32037;50.820;6.494;2023-07-13T14:42:58;1.27;;;1.17;;
46308;SDS011;32037;50.820;6.494;2023-07-13T14:45:27;3.57;;;1.40;;
46308;SDS011;32037;50.820;6.494;2023-07-13T14:47:59;2.03;;;1.03;;
46308;SDS011;32037;50.820;6.494;2023-07-13T14:50:29;1.47;;;1.10;;
46308;SDS011;32037;50.820;6.494;2023-07-13T14:53:01;1.50;;;1.20;;
46308;SDS011;32037;50.820;6.494;2023-07-13T14:55:29;1.10;;;0.90;;
46308;SDS011;32037;50.820;6.494;2023-07-13T14:57:58;1.43;;;1.00;;
46308;SDS011;32037;50.820;6.494;2023-07-13T15:00:27;1.67;;;1.20;;
46308;SDS011;32037;50.820;6.494;2023-07-13T15:02:58;3.00;;;1.67;;
46308;SDS011;32037;50.820;6.494;2023-07-13T15:05:29;1.60;;;0.93;;
46308;SDS011;32037;50.820;6.494;2023-07-13T15:08:01;1.40;;;1.03;;
46308;SDS011;32037;50.820;6.494;2023-07-13T15:10:31;1.00;;;0.90;;
46308;SDS011;32037;50.820;6.494;2023-07-13T15:13:12;2.00;;;0.90;;
46308;SDS011;32037;50.820;6.494;2023-07-13T15:15:42;3.50;;;1.10;;